Time;durP1;ratioP1;P1;durP2;ratioP2;P2;SDS_P1;SDS_P2;PMS_P1;PMS_P2;Temp;Humidity;BMP_temperature;BMP_pressure;BME280_temperature;BME280_humidity;BME280_pressure;Samples;Min_cycle;Max_cycle;Signal;HPM_P1;HPM_P2
2021/01/14 00:01:46;;;;;;;0.90;0.90;;;;;;;-27.16;73.74;101527.00;4989160;28;20054;-63
2021/01/14 00:04:32;;;;;;;2.58;1.25;;;;;;;-27.24;74.30;101525.41;4987736;28;20628;-63
2021/01/14 00:07:19;;;;;;;1.42;1.33;;;;;;;-27.39;73.38;101526.34;4991984;28;20054;-63
2021/01/14 00:10:08;;;;;;;1.02;1.02;;;;;;;-27.50;73.72;101533.53;4992146;28;20139;-63
2021/01/14 00:12:55;;;;;;;1.60;1.50;;;;;;;-27.62;73.31;101534.81;4991686;28;20070;-63
2021/01/14 00:15:41;;;;;;;1.70;1.38;;;;;;;-27.65;73.74;101531.16;4992047;28;20450;-64
2021/01/14 00:18:27;;;;;;;1.15;1.15;;;;;;;-27.69;73.84;101534.91;4991582;28;20053;-63
2021/01/14 00:21:14;;;;;;;2.20;1.38;;;;;;;-27.71;75.21;101524.09;4991530;28;20117;-64
2021/01/14 00:24:00;;;;;;;1.30;1.20;;;;;;;-27.71;74.70;101518.31;5003181;28;20137;-63
2021/01/14 00:26:47;;;;;;;2.05;1.40;;;;;;;-27.75;74.56;101512.22;4985283;28;20058;-63
2021/01/14 00:29:33;;;;;;;1.10;1.10;;;;;;;-27.71;75.33;101519.19;4979919;28;20051;-63
2021/01/14 00:32:20;;;;;;;1.40;1.20;;;;;;;-27.78;74.43;101514.34;4984046;28;20046;-63
2021/01/14 00:35:07;;;;;;;0.93;0.93;;;;;;;-27.75;74.32;101514.69;4990165;28;20058;-63
2021/01/14 00:37:54;;;;;;;3.70;1.00;;;;;;;-27.72;75.13;101507.59;4990967;28;20085;-64
2021/01/14 00:40:41;;;;;;;1.10;1.10;;;;;;;-27.75;75.21;101507.31;4974113;28;20113;-64
2021/01/14 00:43:31;;;;;;;2.17;1.40;;;;;;;-27.76;75.38;101503.13;4988181;28;20058;-63
2021/01/14 00:46:21;;;;;;;2.05;1.40;;;;;;;-27.79;75.17;101506.13;4987662;28;20065;-63
2021/01/14 00:49:07;;;;;;;1.10;1.10;;;;;;;-27.79;75.43;101503.66;4989385;28;20042;-63
2021/01/14 00:51:54;;;;;;;1.45;1.35;;;;;;;-27.81;75.02;101511.63;4988812;28;20145;-63
2021/01/14 00:54:40;;;;;;;1.33;1.23;;;;;;;-27.70;75.52;101506.13;4990426;28;20054;-63
2021/01/14 00:57:27;;;;;;;1.05;1.05;;;;;;;-27.64;75.99;101508.31;4990627;28;20058;-63
2021/01/14 01:00:16;;;;;;;1.70;1.60;;;;;;;-27.69;75.23;101517.69;4988311;28;20065;-63
2021/01/14 01:03:04;;;;;;;1.00;1.00;;;;;;;-27.74;74.73;101511.50;4985872;28;20541;-63
2021/01/14 01:05:50;;;;;;;1.48;1.38;;;;;;;-27.77;74.88;101512.03;4990279;28;20081;-63
2021/01/14 01:08:36;;;;;;;1.70;1.60;;;;;;;-27.77;74.75;101529.25;4990916;28;20050;-63
2021/01/14 01:11:24;;;;;;;1.02;1.00;;;;;;;-27.81;75.22;101506.72;4990492;28;20093;-63
2021/01/14 01:14:10;;;;;;;1.13;1.13;;;;;;;-27.77;75.09;101512.03;4990271;28;20137;-63
2021/01/14 01:16:56;;;;;;;1.10;1.10;;;;;;;-27.73;75.52;101510.78;4990274;28;20054;-63
2021/01/14 01:19:43;;;;;;;1.88;1.35;;;;;;;-27.66;75.46;101509.78;4989214;28;20113;-64
2021/01/14 01:22:29;;;;;;;1.17;1.17;;;;;;;-27.61;76.15;101507.06;4989706;28;20046;-63
2021/01/14 01:25:16;;;;;;;1.35;1.25;;;;;;;-27.59;75.17;101504.72;4990319;28;20054;-63
2021/01/14 01:28:02;;;;;;;2.22;1.27;;;;;;;-27.61;75.18;101502.13;4989431;28;20500;-63
2021/01/14 01:30:49;;;;;;;5.88;1.67;;;;;;;-27.63;74.37;101506.00;4989432;28;20058;-63
2021/01/14 01:33:35;;;;;;;2.28;1.85;;;;;;;-27.59;74.89;101503.13;4989453;28;20134;-63
2021/01/14 01:36:23;;;;;;;1.13;1.02;;;;;;;-27.62;74.71;101501.97;4989644;28;20062;-63
2021/01/14 01:39:09;;;;;;;1.45;1.35;;;;;;;-27.59;76.05;101498.22;4990212;28;20093;-63
2021/01/14 01:41:57;;;;;;;1.55;1.45;;;;;;;-27.59;75.37;101503.13;4986439;28;20113;-63
2021/01/14 01:44:43;;;;;;;1.45;1.35;;;;;;;-27.60;75.56;101498.09;5002956;28;20100;-64
2021/01/14 01:47:33;;;;;;;1.75;1.40;;;;;;;-27.64;75.49;101491.13;5003292;28;20065;-63
2021/01/14 01:50:20;;;;;;;2.88;1.55;;;;;;;-27.65;75.69;101487.81;4987454;28;20057;-63
2021/01/14 01:53:07;;;;;;;1.60;1.50;;;;;;;-27.67;75.37;101498.19;4987106;28;20074;-63
2021/01/14 01:55:54;;;;;;;1.65;1.55;;;;;;;-27.67;74.79;101500.63;4989391;28;20058;-64
2021/01/14 01:58:41;;;;;;;1.88;1.55;;;;;;;-27.69;74.70;101507.00;4989951;28;20124;-63
2021/01/14 02:01:28;;;;;;;1.50;1.40;;;;;;;-27.70;75.68;101497.94;4988881;28;20065;-64
2021/01/14 02:04:14;;;;;;;1.63;1.48;;;;;;;-27.61;76.97;101503.72;4989224;28;20046;-64
2021/01/14 02:07:09;;;;;;;1.50;1.40;;;;;;;-27.73;76.44;101486.19;4989592;28;20061;-63
2021/01/14 02:09:56;;;;;;;1.73;1.48;;;;;;;-27.64;75.75;101501.81;4990264;28;20497;-63
2021/01/14 02:13:13;;;;;;;2.00;1.63;;;;;;;-27.63;75.33;101503.56;4989291;28;20137;-64
2021/01/14 02:16:01;;;;;;;1.23;1.13;;;;;;;-27.65;75.56;101495.19;4989563;28;20054;-63
2021/01/14 02:18:53;;;;;;;1.30;1.20;;;;;;;-27.70;75.82;101496.31;4989083;28;20100;-63
2021/01/14 02:21:42;;;;;;;1.48;1.38;;;;;;;-27.70;75.16;101491.41;4984843;28;20506;-64
2021/01/14 02:24:36;;;;;;;1.35;1.25;;;;;;;-27.70;74.78;101496.31;4988807;28;20046;-63
2021/01/14 02:27:24;;;;;;;1.40;1.25;;;;;;;-27.77;75.11;101497.31;4989848;28;20086;-63
2021/01/14 02:30:12;;;;;;;3.83;1.67;;;;;;;-27.81;74.84;101502.66;4989341;28;20082;-63
2021/01/14 02:32:58;;;;;;;2.42;1.48;;;;;;;-27.86;74.65;101505.34;4988912;28;20085;-64
2021/01/14 02:35:45;;;;;;;1.20;1.10;;;;;;;-27.94;73.98;101506.19;4990077;28;20062;-64
2021/01/14 02:38:32;;;;;;;3.17;1.95;;;;;;;-27.96;74.29;101506.00;4976904;28;20137;-64
2021/01/14 02:41:19;;;;;;;1.48;1.38;;;;;;;-28.02;74.00;101507.88;4990400;28;20403;-63
2021/01/14 02:44:05;;;;;;;1.58;1.48;;;;;;;-28.09;74.27;101501.50;4976715;28;20121;-64
2021/01/14 02:46:52;;;;;;;1.77;1.33;;;;;;;-28.08;74.51;101507.25;4990657;28;20062;-63
2021/01/14 02:49:48;;;;;;;1.63;1.52;;;;;;;-28.07;74.43;101506.53;4990686;28;20571;-64
2021/01/14 02:52:37;;;;;;;2.03;1.23;;;;;;;-28.06;74.82;101499.31;5004438;28;20054;-63
2021/01/14 02:55:24;;;;;;;1.00;1.00;;;;;;;-28.09;74.44;101500.63;4992326;28;20494;-64
2021/01/14 02:58:11;;;;;;;2.53;1.52;;;;;;;-28.08;73.96;101499.91;4994453;28;20453;-63
2021/01/14 03:00:58;;;;;;;1.08;1.05;;;;;;;-28.08;74.75;101497.44;4994266;28;20054;-63
2021/01/14 03:03:44;;;;;;;1.10;1.10;;;;;;;-28.08;74.32;101505.69;4994553;28;20521;-63
2021/01/14 03:06:30;;;;;;;0.88;0.85;;;;;;;-28.12;74.02;101503.63;4994523;28;20489;-63
2021/01/14 03:09:17;;;;;;;1.02;1.02;;;;;;;-28.15;74.02;101500.84;4994406;28;20050;-63
2021/01/14 03:12:04;;;;;;;1.63;1.48;;;;;;;-28.15;74.60;101502.44;4993768;28;20050;-63
2021/01/14 03:14:50;;;;;;;1.05;1.05;;;;;;;-28.25;74.27;101505.56;5008264;28;20390;-63
2021/01/14 03:17:37;;;;;;;1.05;0.90;;;;;;;-28.41;73.70;101505.63;4994664;28;20564;-63
2021/01/14 03:20:24;;;;;;;1.10;1.10;;;;;;;-28.41;74.29;101499.84;4994152;28;20046;-63
2021/01/14 03:23:10;;;;;;;1.10;1.10;;;;;;;-28.50;73.63;101502.22;4993357;28;20058;-64
2021/01/14 03:25:57;;;;;;;1.17;1.13;;;;;;;-28.52;73.29;101501.22;4981009;28;20058;-63
2021/01/14 03:28:44;;;;;;;1.20;1.20;;;;;;;-28.47;74.88;101489.44;4993708;28;20112;-65
2021/01/14 03:31:31;;;;;;;1.20;1.10;;;;;;;-28.46;74.07;101493.63;4990235;28;20494;-63
2021/01/14 03:34:17;;;;;;;1.00;1.00;;;;;;;-28.53;74.22;101492.97;4993295;28;20394;-63
2021/01/14 03:37:05;;;;;;;1.15;1.10;;;;;;;-28.50;74.32;101491.56;4993716;28;20054;-63
2021/01/14 03:39:51;;;;;;;1.23;1.13;;;;;;;-28.53;73.42;101482.28;4994061;28;20136;-63
2021/01/14 03:42:38;;;;;;;1.15;1.13;;;;;;;-28.50;74.42;101487.50;4993095;28;20066;-63
2021/01/14 03:45:24;;;;;;;1.48;1.38;;;;;;;-28.44;73.92;101480.78;4991511;28;20137;-64
2021/01/14 03:48:11;;;;;;;1.30;1.20;;;;;;;-28.44;73.78;101485.69;4993547;28;20449;-63
2021/01/14 03:50:57;;;;;;;1.40;1.30;;;;;;;-28.41;74.17;101481.09;4993040;28;20101;-63
2021/01/14 03:53:47;;;;;;;1.00;1.00;;;;;;;-28.43;73.95;101482.53;4991589;28;20105;-63
2021/01/14 03:56:39;;;;;;;1.20;1.20;;;;;;;-28.53;73.71;101480.69;4993700;28;20104;-63
2021/01/14 03:59:25;;;;;;;1.67;1.52;;;;;;;-28.55;72.99;101476.38;4993229;28;20116;-63
2021/01/14 04:02:11;;;;;;;1.30;1.20;;;;;;;-28.58;73.60;101476.03;4993049;28;20063;-63
2021/01/14 04:04:58;;;;;;;3.10;1.20;;;;;;;-28.68;73.11;101478.28;5006637;28;20042;-63
2021/01/14 04:07:46;;;;;;;4.35;3.25;;;;;;;-28.69;73.96;101474.97;4993583;28;20514;-63
2021/01/14 04:10:32;;;;;;;1.58;1.48;;;;;;;-28.71;73.10;101476.41;4993768;28;20449;-63
2021/01/14 04:13:19;;;;;;;1.50;1.40;;;;;;;-28.88;71.82;101474.66;4993494;28;20589;-63
2021/01/14 04:16:05;;;;;;;1.13;1.13;;;;;;;-29.02;72.07;101477.31;4992972;28;20050;-63
2021/01/14 04:18:52;;;;;;;1.10;1.10;;;;;;;-28.95;73.09;101471.44;4993229;28;20071;-63
2021/01/14 04:21:38;;;;;;;1.30;1.20;;;;;;;-28.96;73.13;101469.72;4992695;28;20453;-62
2021/01/14 04:24:24;;;;;;;3.10;2.50;;;;;;;-28.94;73.89;101469.16;4993111;28;20750;-63
2021/01/14 04:27:11;;;;;;;1.10;1.10;;;;;;;-28.92;73.23;101459.47;4991448;28;20112;-63
2021/01/14 04:30:00;;;;;;;1.25;1.17;;;;;;;-28.97;73.45;101460.63;4993222;28;20409;-63
2021/01/14 04:32:47;;;;;;;1.17;1.17;;;;;;;-28.96;73.46;101465.66;4992946;28;20054;-63
2021/01/14 04:35:33;;;;;;;0.95;0.95;;;;;;;-28.88;74.20;101466.44;4990209;28;20054;-64
2021/01/14 04:38:24;;;;;;;1.08;1.05;;;;;;;-29.00;72.87;101470.09;4992984;28;20387;-62
2021/01/14 04:41:12;;;;;;;1.00;1.00;;;;;;;-29.03;72.77;101470.66;4991078;28;20121;-63
2021/01/14 04:43:59;;;;;;;1.15;1.15;;;;;;;-29.04;73.43;101471.38;4992838;28;20409;-62
2021/01/14 04:46:49;;;;;;;1.85;1.75;;;;;;;-29.06;73.35;101462.97;4995366;28;20046;-64
2021/01/14 04:49:35;;;;;;;1.50;1.40;;;;;;;-29.05;73.15;101464.72;5005234;28;20078;-64
2021/01/14 04:52:26;;;;;;;1.40;1.30;;;;;;;-29.12;72.92;101469.72;4985686;28;20494;-63
2021/01/14 04:55:15;;;;;;;1.10;1.10;;;;;;;-29.16;73.43;101458.72;4992534;28;20508;-63
2021/01/14 04:58:04;;;;;;;1.10;1.10;;;;;;;-29.20;73.22;101461.56;4989412;28;20397;-63
2021/01/14 05:00:51;;;;;;;1.00;1.00;;;;;;;-29.19;73.40;101465.78;4992748;28;20571;-64
2021/01/14 05:03:40;;;;;;;1.40;1.30;;;;;;;-29.08;74.07;101469.31;4992364;28;20464;-63
2021/01/14 05:06:26;;;;;;;1.30;1.20;;;;;;;-29.14;73.61;101464.66;4991634;28;20097;-62
2021/01/14 05:09:21;;;;;;;1.10;1.10;;;;;;;-29.14;73.39;101464.66;4992036;28;20100;-64
2021/01/14 05:12:09;;;;;;;1.30;1.20;;;;;;;-29.08;73.61;101464.41;4992809;28;20050;-63
2021/01/14 05:14:55;;;;;;;1.60;1.50;;;;;;;-29.08;73.22;101471.78;4992349;28;20505;-63
2021/01/14 05:17:42;;;;;;;1.25;1.20;;;;;;;-29.06;73.86;101466.31;4990911;28;20051;-64
2021/01/14 05:20:29;;;;;;;1.15;1.13;;;;;;;-29.12;72.97;101465.69;4992306;28;20061;-63
2021/01/14 05:23:20;;;;;;;1.17;1.17;;;;;;;-29.19;73.03;101462.41;4992412;28;20104;-64
2021/01/14 05:26:06;;;;;;;1.23;1.17;;;;;;;-29.18;73.54;101459.28;4992045;28;20054;-62
2021/01/14 05:28:56;;;;;;;1.27;1.20;;;;;;;-29.20;73.52;101455.78;4991151;28;20140;-63
2021/01/14 05:31:44;;;;;;;1.30;1.20;;;;;;;-29.15;74.27;101455.53;4992431;28;20047;-63
2021/01/14 05:34:30;;;;;;;1.27;1.20;;;;;;;-29.18;73.71;101454.38;4986428;28;20458;-63
2021/01/14 05:37:17;;;;;;;1.40;1.30;;;;;;;-29.22;73.25;101464.56;4991966;28;20509;-62
2021/01/14 05:40:05;;;;;;;1.40;1.30;;;;;;;-29.28;72.12;101461.47;4991842;28;20465;-63
2021/01/14 05:43:06;;;;;;;1.40;1.30;;;;;;;-29.32;72.85;101466.06;4992035;28;20058;-65
2021/01/14 05:45:53;;;;;;;1.10;1.08;;;;;;;-29.32;73.36;101470.97;4992207;28;20397;-66
2021/01/14 05:48:39;;;;;;;1.10;1.10;;;;;;;-29.38;73.20;101465.44;4992936;28;20054;-62
2021/01/14 05:51:33;;;;;;;1.35;1.25;;;;;;;-29.42;73.22;101463.38;4991626;28;20104;-64
2021/01/14 05:54:36;;;;;;;1.77;1.67;;;;;;;-29.43;73.42;101461.59;4977780;28;20074;-63
2021/01/14 05:57:29;;;;;;;1.25;1.20;;;;;;;-29.41;73.61;101454.44;4991960;28;20061;-63
2021/01/14 06:00:16;;;;;;;1.40;1.30;;;;;;;-29.31;74.12;101458.00;4989494;28;20180;-65
2021/01/14 06:03:23;;;;;;;1.17;1.17;;;;;;;-29.18;74.74;101456.84;4980271;28;20058;-65
2021/01/14 06:06:16;;;;;;;1.33;1.23;;;;;;;-29.16;74.20;101455.41;4993520;28;20054;-64
2021/01/14 06:09:11;;;;;;;1.15;1.15;;;;;;;-29.27;73.55;101449.38;4992973;28;20347;-65
2021/01/14 06:12:10;;;;;;;1.50;1.40;;;;;;;-29.28;72.93;101454.13;4981921;28;20042;-65
2021/01/14 06:14:57;;;;;;;1.30;1.20;;;;;;;-29.37;73.29;101449.16;4997533;28;20062;-64
2021/01/14 06:17:45;;;;;;;1.17;1.17;;;;;;;-29.44;72.76;101446.75;4999445;28;20054;-62
2021/01/14 06:20:35;;;;;;;1.40;1.30;;;;;;;-29.48;72.89;101439.78;4985347;28;20093;-63
2021/01/14 06:23:23;;;;;;;0.95;0.95;;;;;;;-29.38;73.59;101447.38;5009829;28;20054;-64
2021/01/14 06:26:10;;;;;;;1.38;1.27;;;;;;;-29.38;73.39;101443.38;5011489;28;20072;-62
2021/01/14 06:28:57;;;;;;;1.02;1.02;;;;;;;-29.48;73.21;101440.66;4993975;28;20050;-62
2021/01/14 06:31:44;;;;;;;2.22;2.13;;;;;;;-29.46;73.19;101449.06;4995625;28;20054;-63
2021/01/14 06:34:34;;;;;;;1.30;1.20;;;;;;;-29.50;72.70;101446.13;4997083;28;20122;-62
2021/01/14 06:37:23;;;;;;;1.10;1.10;;;;;;;-29.52;72.62;101436.19;5007899;28;20109;-66
2021/01/14 06:40:17;;;;;;;1.50;1.40;;;;;;;-29.61;72.81;101441.00;4996172;28;20137;-63
2021/01/14 06:43:12;;;;;;;1.40;1.30;;;;;;;-29.61;72.88;101450.81;4994224;28;20058;-63
2021/01/14 06:46:13;;;;;;;1.45;1.35;;;;;;;-29.65;72.91;101446.28;4992574;28;20042;-63
2021/01/14 06:49:03;;;;;;;1.10;1.10;;;;;;;-29.64;73.05;101439.81;4995899;28;20058;-63
2021/01/14 06:52:02;;;;;;;1.30;1.20;;;;;;;-29.74;72.18;101452.66;4992593;28;20100;-63
2021/01/14 06:54:51;;;;;;;1.30;1.20;;;;;;;-29.78;72.59;101443.25;4990635;28;20476;-63
2021/01/14 06:57:41;;;;;;;1.13;1.13;;;;;;;-29.74;73.47;101434.66;4992601;28;20465;-63
2021/01/14 07:00:29;;;;;;;1.35;1.25;;;;;;;-29.83;72.64;101439.44;4994047;28;20733;-62
2021/01/14 07:03:31;;;;;;;1.50;1.40;;;;;;;-29.81;72.66;101442.91;4995409;28;20061;-62
2021/01/14 07:06:25;;;;;;;1.65;1.55;;;;;;;-29.86;72.31;101453.81;4993933;28;20178;-63
2021/01/14 07:09:20;;;;;;;1.55;1.45;;;;;;;-29.80;72.88;101453.59;4995267;28;20054;-62
2021/01/14 07:12:09;;;;;;;1.35;1.25;;;;;;;-29.72;72.96;101450.38;4993193;28;20054;-62
2021/01/14 07:15:06;;;;;;;2.33;1.95;;;;;;;-29.70;73.25;101458.75;4994796;28;20073;-63
2021/01/14 07:18:02;;;;;;;1.40;1.30;;;;;;;-29.74;72.40;101466.50;5008900;28;20109;-63
2021/01/14 07:20:49;;;;;;;1.15;1.13;;;;;;;-29.86;72.03;101451.34;4994595;28;20051;-63
2021/01/14 07:23:43;;;;;;;1.48;1.38;;;;;;;-29.86;72.07;101463.59;4997310;28;20114;-63
2021/01/14 07:26:34;;;;;;;1.30;1.20;;;;;;;-29.91;72.00;101455.75;5009727;28;20100;-63
2021/01/14 07:29:22;;;;;;;3.53;3.28;;;;;;;-29.87;72.80;101449.63;4996715;28;20066;-63
2021/01/14 07:32:10;;;;;;;1.40;1.30;;;;;;;-29.86;72.70;101457.13;4994179;28;20090;-63
2021/01/14 07:35:00;;;;;;;3.63;3.30;;;;;;;-29.85;73.24;101446.63;4992531;28;20054;-62
2021/01/14 07:37:53;;;;;;;1.50;1.40;;;;;;;-29.87;72.88;101450.50;4994498;28;20054;-63
2021/01/14 07:40:42;;;;;;;4.38;4.07;;;;;;;-29.86;72.27;101452.22;4991892;28;20042;-63
2021/01/14 07:43:32;;;;;;;2.25;2.10;;;;;;;-29.88;72.68;101450.34;4994981;28;20116;-63
2021/01/14 07:46:22;;;;;;;9.80;5.03;;;;;;;-29.87;72.75;101455.38;4995650;28;20046;-63
2021/01/14 07:49:26;;;;;;;25.02;3.15;;;;;;;-29.96;72.34;101464.19;4994004;28;20566;-63
2021/01/14 07:52:32;;;;;;;2.60;2.40;;;;;;;-29.99;72.24;101446.75;4990447;28;20555;-63
2021/01/14 07:55:31;;;;;;;1.65;1.55;;;;;;;-29.92;72.84;101451.56;4991509;28;20050;-63
2021/01/14 07:58:20;;;;;;;1.33;1.23;;;;;;;-29.87;72.69;101454.50;4992199;28;20058;-62
2021/01/14 08:01:10;;;;;;;1.40;1.30;;;;;;;-29.87;72.68;101450.50;4994411;28;20050;-62
2021/01/14 08:03:57;;;;;;;3.88;1.60;;;;;;;-29.81;72.80;101452.72;4995423;28;20085;-62
2021/01/14 08:06:45;;;;;;;1.50;1.40;;;;;;;-29.84;72.38;101448.38;4997342;28;20050;-64
2021/01/14 08:09:41;;;;;;;1.30;1.20;;;;;;;-29.85;72.01;101458.00;5010779;28;20054;-62
2021/01/14 08:12:34;;;;;;;1.50;1.40;;;;;;;-29.83;71.40;101461.47;4995695;28;20065;-62
2021/01/14 08:15:36;;;;;;;1.45;1.35;;;;;;;-29.84;71.80;101454.84;4982693;28;20501;-63
2021/01/14 08:18:23;;;;;;;1.30;1.20;;;;;;;-29.77;72.20;101462.13;4982442;28;20061;-63
2021/01/14 08:21:28;;;;;;;1.40;1.30;;;;;;;-29.71;72.20;101460.34;4979861;28;20050;-62
2021/01/14 08:24:40;;;;;;;1.30;1.20;;;;;;;-29.67;72.22;101449.28;5006841;28;20054;-62
2021/01/14 08:27:31;;;;;;;1.48;1.38;;;;;;;-29.58;72.56;101450.25;4992708;28;20469;-62
2021/01/14 08:30:20;;;;;;;1.42;1.33;;;;;;;-29.44;72.75;101449.22;4999939;28;20058;-63
2021/01/14 08:33:08;;;;;;;1.40;1.30;;;;;;;-29.34;72.25;101447.00;4993190;28;20046;-62
2021/01/14 08:36:03;;;;;;;3.72;2.85;;;;;;;-29.26;72.07;101448.66;4992878;28;20522;-63
2021/01/14 08:38:52;;;;;;;1.40;1.30;;;;;;;-29.16;72.19;101450.50;4994701;28;20493;-63
2021/01/14 08:41:40;;;;;;;1.95;1.85;;;;;;;-29.07;72.29;101446.53;4982470;28;20077;-62
2021/01/14 08:44:29;;;;;;;3.42;3.17;;;;;;;-28.99;72.36;101452.25;4991565;28;20058;-62
2021/01/14 08:47:17;;;;;;;1.27;1.20;;;;;;;-28.97;72.18;101451.69;4995536;28;20066;-63
2021/01/14 08:50:06;;;;;;;1.10;1.10;;;;;;;-28.82;72.89;101447.44;4994736;28;20512;-62
2021/01/14 08:52:54;;;;;;;1.35;1.25;;;;;;;-28.70;72.32;101456.06;4993394;28;20571;-62
2021/01/14 08:55:41;;;;;;;2.55;1.88;;;;;;;-28.65;72.65;101449.16;4996149;28;20512;-63
2021/01/14 08:58:42;;;;;;;3.67;1.80;;;;;;;-28.52;72.01;101457.06;4992583;28;20080;-64
2021/01/14 09:01:32;;;;;;;1.38;1.27;;;;;;;-28.40;72.78;101464.78;4995517;28;20054;-64
2021/01/14 09:04:25;;;;;;;1.60;1.50;;;;;;;-28.36;72.59;101460.34;4994506;28;21679;-63
2021/01/14 09:07:18;;;;;;;1.20;1.15;;;;;;;-28.34;72.86;101453.97;4995969;28;20082;-63
2021/01/14 09:10:06;;;;;;;1.58;1.48;;;;;;;-28.27;72.73;101451.41;4992752;28;20066;-63
2021/01/14 09:12:52;;;;;;;1.25;1.15;;;;;;;-28.20;72.07;101439.75;5004135;28;20109;-63
2021/01/14 09:15:39;;;;;;;1.10;1.10;;;;;;;-28.21;71.46;101438.88;5005113;28;20042;-63
2021/01/14 09:18:33;;;;;;;2.08;1.40;;;;;;;-28.15;71.66;101439.47;4989961;28;20058;-62
2021/01/14 09:21:20;;;;;;;6.07;2.35;;;;;;;-28.07;72.03;101438.66;5002954;28;20078;-63
2021/01/14 09:24:10;;;;;;;2.97;2.78;;;;;;;-27.97;71.88;101437.97;4988467;28;20054;-63
2021/01/14 09:26:57;;;;;;;1.33;1.23;;;;;;;-27.99;71.26;101429.63;4991399;28;20063;-63
2021/01/14 09:29:43;;;;;;;1.95;1.85;;;;;;;-27.85;71.11;101433.44;4989180;28;20170;-62
2021/01/14 09:32:30;;;;;;;1.58;1.48;;;;;;;-27.84;71.78;101431.13;4989066;28;20806;-63
2021/01/14 09:35:16;;;;;;;4.28;1.63;;;;;;;-27.75;70.12;101426.25;4989951;28;20050;-63
2021/01/14 09:38:05;;;;;;;4.10;2.78;;;;;;;-27.67;70.62;101437.66;4987990;28;20077;-63
2021/01/14 09:40:54;;;;;;;17.33;5.82;;;;;;;-27.63;71.19;101434.75;4989094;28;20486;-63
2021/01/14 09:43:42;;;;;;;3.40;2.38;;;;;;;-27.50;71.15;101430.31;4990836;28;20083;-64
2021/01/14 09:46:30;;;;;;;1.40;1.30;;;;;;;-27.42;70.25;101431.06;4985964;28;20046;-63
2021/01/14 09:49:21;;;;;;;1.92;1.48;;;;;;;-27.36;69.86;101424.28;4986262;28;20149;-63
2021/01/14 09:52:08;;;;;;;2.15;1.98;;;;;;;-27.27;70.29;101417.78;4988171;28;20523;-63
2021/01/14 09:54:56;;;;;;;7.07;2.58;;;;;;;-27.13;70.15;101421.56;4990920;28;20050;-63
2021/01/14 09:57:51;;;;;;;3.38;1.90;;;;;;;-27.09;69.74;101417.81;4988221;28;20042;-63
2021/01/14 10:00:42;;;;;;;1.58;1.42;;;;;;;-27.12;70.19;101415.94;5003868;28;20054;-63
2021/01/14 10:03:31;;;;;;;2.72;1.98;;;;;;;-27.03;70.51;101411.84;4991952;28;20073;-63
2021/01/14 10:06:21;;;;;;;4.47;2.75;;;;;;;-26.93;71.02;101425.03;4993812;28;20053;-64
2021/01/14 10:09:09;;;;;;;1.80;1.67;;;;;;;-26.98;70.85;101419.69;4993790;28;20624;-63
2021/01/14 10:11:56;;;;;;;4.35;2.80;;;;;;;-26.91;70.22;101411.28;4988151;28;20057;-63
2021/01/14 10:14:43;;;;;;;3.80;2.35;;;;;;;-27.01;70.89;101410.41;4992282;28;21463;-64
2021/01/14 10:17:35;;;;;;;3.20;2.83;;;;;;;-26.89;71.16;101403.31;4992057;28;20051;-64
2021/01/14 10:20:22;;;;;;;6.95;3.13;;;;;;;-26.75;71.32;101402.16;5006965;28;20046;-63
2021/01/14 10:23:09;;;;;;;4.70;2.00;;;;;;;-26.69;71.11;101392.88;5004662;28;20670;-64
2021/01/14 10:25:56;;;;;;;5.63;2.45;;;;;;;-26.65;71.05;101397.38;4977475;28;20081;-64
2021/01/14 10:28:44;;;;;;;7.20;4.53;;;;;;;-26.54;70.87;101390.97;4991382;28;20038;-63
2021/01/14 10:31:35;;;;;;;2.67;1.75;;;;;;;-26.61;71.11;101378.84;5004167;28;20070;-63
2021/01/14 10:34:23;;;;;;;6.38;3.22;;;;;;;-26.60;70.69;101364.22;4989062;28;20049;-63
2021/01/14 10:37:29;;;;;;;2.22;1.92;;;;;;;-26.53;70.71;101377.94;4990578;28;20049;-62
2021/01/14 10:40:18;;;;;;;4.00;1.92;;;;;;;-26.56;70.41;101366.25;4976885;28;20484;-64
2021/01/14 10:43:06;;;;;;;2.67;2.28;;;;;;;-26.51;70.13;101362.59;4979444;28;20050;-63
2021/01/14 10:45:52;;;;;;;8.35;2.55;;;;;;;-26.57;70.20;101369.44;4990102;28;20074;-63
2021/01/14 10:48:42;;;;;;;8.93;2.42;;;;;;;-26.70;70.46;101371.47;5003329;28;20038;-63
2021/01/14 10:51:32;;;;;;;4.07;1.58;;;;;;;-26.58;70.39;101369.28;4990453;28;20057;-63
2021/01/14 10:54:20;;;;;;;3.95;2.70;;;;;;;-26.62;69.75;101364.81;4990254;28;20052;-62
2021/01/14 10:57:07;;;;;;;5.38;2.97;;;;;;;-26.56;70.44;101360.44;4991414;28;20588;-63
2021/01/14 10:59:54;;;;;;;8.88;4.88;;;;;;;-26.68;69.81;101357.72;4991237;28;20058;-63
2021/01/14 11:02:41;;;;;;;2.20;1.85;;;;;;;-26.76;71.15;101352.09;4989846;28;20054;-63
2021/01/14 11:05:51;;;;;;;3.28;2.28;;;;;;;-26.81;71.23;101348.34;4989066;28;20123;-63
2021/01/14 11:08:44;;;;;;;8.85;2.38;;;;;;;-26.75;71.23;101343.97;4992664;28;20080;-62
2021/01/14 11:11:31;;;;;;;9.75;4.10;;;;;;;-26.73;71.55;101344.09;4992235;28;20378;-63
2021/01/14 11:14:18;;;;;;;8.02;3.08;;;;;;;-26.72;71.76;101334.44;4991319;28;20076;-64
2021/01/14 11:17:05;;;;;;;7.25;2.92;;;;;;;-26.80;71.68;101337.75;4994916;28;20061;-63
2021/01/14 11:19:53;;;;;;;5.30;2.70;;;;;;;-26.73;70.87;101334.25;4996011;28;20141;-62
2021/01/14 11:22:40;;;;;;;5.43;2.35;;;;;;;-26.93;71.46;101332.44;4997148;28;20074;-62
2021/01/14 11:25:27;;;;;;;7.05;2.58;;;;;;;-26.87;71.97;101328.06;4998206;28;20057;-63
2021/01/14 11:28:14;;;;;;;3.15;2.28;;;;;;;-27.12;72.95;101331.47;5013529;28;20130;-63
2021/01/14 11:31:01;;;;;;;12.45;3.00;;;;;;;-27.06;71.93;101332.00;4995393;28;20081;-63
2021/01/14 11:33:48;;;;;;;3.13;1.75;;;;;;;-26.96;72.37;101325.66;4994111;28;20074;-67
2021/01/14 11:36:34;;;;;;;21.88;4.38;;;;;;;-26.96;72.38;101328.09;4994235;28;20113;-63
2021/01/14 11:39:21;;;;;;;2.60;1.75;;;;;;;-27.02;72.29;101322.59;5002268;28;20113;-65
2021/01/14 11:42:08;;;;;;;9.00;2.42;;;;;;;-27.05;71.65;101328.84;4993869;28;20559;-63
2021/01/14 11:44:55;;;;;;;5.45;3.15;;;;;;;-27.13;71.23;101325.69;4985467;28;20056;-63
2021/01/14 11:47:42;;;;;;;10.20;4.00;;;;;;;-27.16;71.31;101327.84;4991732;28;20062;-63
2021/01/14 11:50:28;;;;;;;6.65;3.42;;;;;;;-27.22;71.26;101322.34;4992804;28;20050;-64
2021/01/14 11:53:15;;;;;;;6.72;1.95;;;;;;;-27.42;71.25;101327.84;5005416;28;20066;-63
2021/01/14 11:56:02;;;;;;;23.33;9.02;;;;;;;-27.25;73.11;101329.44;4992690;28;20093;-63
2021/01/14 11:58:48;;;;;;;7.60;3.58;;;;;;;-27.25;71.65;101320.47;4996616;28;20058;-64
2021/01/14 12:01:35;;;;;;;73.43;43.40;;;;;;;-27.32;73.24;101320.63;4995990;28;20046;-63
2021/01/14 12:04:21;;;;;;;51.75;25.25;;;;;;;-27.28;72.85;101321.78;4992583;28;20062;-64
2021/01/14 12:07:07;;;;;;;19.33;11.35;;;;;;;-27.41;73.22;101313.97;4990095;28;20055;-64
2021/01/14 12:09:56;;;;;;;9.27;5.28;;;;;;;-27.30;72.72;101315.84;5003773;28;20042;-65
2021/01/14 12:12:42;;;;;;;7.57;3.95;;;;;;;-27.33;73.18;101308.19;4990028;28;20050;-63
2021/01/14 12:15:29;;;;;;;4.88;3.42;;;;;;;-27.33;73.70;101304.16;5002815;28;20050;-64
2021/01/14 12:18:16;;;;;;;8.57;4.28;;;;;;;-27.34;73.31;101301.53;4987906;28;20042;-63
2021/01/14 12:21:02;;;;;;;3.38;2.53;;;;;;;-27.40;72.57;101298.50;4989393;28;20136;-64
2021/01/14 12:23:48;;;;;;;8.40;2.70;;;;;;;-27.49;72.11;101299.34;4989029;28;20112;-64
2021/01/14 12:26:35;;;;;;;3.53;3.08;;;;;;;-27.54;72.38;101297.19;4988959;28;20082;-64
2021/01/14 12:29:23;;;;;;;6.20;3.20;;;;;;;-27.61;72.20;101290.84;4988602;28;20038;-64
2021/01/14 12:32:09;;;;;;;3.78;2.95;;;;;;;-27.65;72.33;101292.84;4989810;28;20050;-64
2021/01/14 12:34:56;;;;;;;32.22;8.13;;;;;;;-27.70;71.66;101296.50;4989865;28;20150;-64
2021/01/14 12:37:44;;;;;;;10.80;4.20;;;;;;;-27.76;71.98;101296.78;4989500;28;20047;-64
2021/01/14 12:40:30;;;;;;;20.75;11.27;;;;;;;-27.83;72.31;101291.97;4991584;28;20137;-64
2021/01/14 12:43:17;;;;;;;5.15;3.05;;;;;;;-27.82;72.55;101293.72;4990969;28;20050;-63
2021/01/14 12:46:04;;;;;;;9.02;4.60;;;;;;;-27.85;72.28;101290.97;4989859;28;20050;-63
2021/01/14 12:48:53;;;;;;;21.98;4.63;;;;;;;-27.93;72.92;101274.63;4988024;28;20054;-64
2021/01/14 12:51:40;;;;;;;6.95;3.00;;;;;;;-27.95;72.11;101285.91;4990388;28;20112;-63
2021/01/14 12:54:26;;;;;;;6.20;2.92;;;;;;;-28.03;72.02;101285.16;4988129;28;20502;-64
2021/01/14 12:57:13;;;;;;;5.07;2.83;;;;;;;-28.11;72.05;101281.09;4989481;28;20485;-65